Time;durP1;ratioP1;P1;durP2;ratioP2;P2;SDS_P1;SDS_P2;PMS_P1;PMS_P2;Temp;Humidity;BMP_temperature;BMP_pressure;BME280_temperature;BME280_humidity;BME280_pressure;Samples;Min_cycle;Max_cycle;Signal;HPM_P1;HPM_P2
2022/07/17 00:01:17;;;;;;;5.65;1.30;;;;;;;;;;4954078;28;21052;-65
2022/07/17 00:03:44;;;;;;;8.43;1.83;;;;;;;;;;4960301;28;20050;-65
2022/07/17 00:06:10;;;;;;;6.63;1.92;;;;;;;;;;4954191;28;20126;-65
2022/07/17 00:08:37;;;;;;;5.13;1.35;;;;;;;;;;4955655;28;20240;-65
2022/07/17 00:11:04;;;;;;;5.78;1.30;;;;;;;;;;4953221;28;20036;-65
2022/07/17 00:13:31;;;;;;;3.33;1.42;;;;;;;;;;4953780;28;20122;-65
2022/07/17 00:15:58;;;;;;;4.47;1.52;;;;;;;;;;4976937;28;20050;-65
2022/07/17 00:18:24;;;;;;;6.72;1.50;;;;;;;;;;4956519;28;20039;-65
2022/07/17 00:20:51;;;;;;;4.78;1.33;;;;;;;;;;4953783;28;20776;-65
2022/07/17 00:23:18;;;;;;;6.82;1.27;;;;;;;;;;4954727;28;20038;-64
2022/07/17 00:25:46;;;;;;;4.55;1.40;;;;;;;;;;4953873;28;21739;-65
2022/07/17 00:28:13;;;;;;;4.72;1.40;;;;;;;;;;4953466;28;20048;-66
2022/07/17 00:30:39;;;;;;;6.22;1.52;;;;;;;;;;4956627;28;20051;-65
2022/07/17 00:33:06;;;;;;;3.38;1.42;;;;;;;;;;4954513;28;20035;-65
2022/07/17 00:35:33;;;;;;;6.80;1.60;;;;;;;;;;4954648;28;20047;-65
2022/07/17 00:37:59;;;;;;;4.22;1.30;;;;;;;;;;4954197;28;20641;-65
2022/07/17 00:40:26;;;;;;;7.63;1.27;;;;;;;;;;4953069;28;20066;-65
2022/07/17 00:42:54;;;;;;;4.95;1.60;;;;;;;;;;4954611;28;20093;-65
2022/07/17 00:45:24;;;;;;;9.82;1.48;;;;;;;;;;4953368;28;20097;-64
2022/07/17 00:48:01;;;;;;;7.72;1.77;;;;;;;;;;4972034;28;20827;-65
2022/07/17 00:50:29;;;;;;;6.65;1.33;;;;;;;;;;4971897;28;20070;-65
2022/07/17 00:52:56;;;;;;;4.93;1.60;;;;;;;;;;4973488;28;20962;-65
2022/07/17 00:55:23;;;;;;;6.43;1.65;;;;;;;;;;4971344;28;20117;-65
2022/07/17 00:57:51;;;;;;;9.70;1.60;;;;;;;;;;4973187;28;20154;-65
2022/07/17 01:00:18;;;;;;;5.97;1.45;;;;;;;;;;4973194;28;20150;-65
2022/07/17 01:02:52;;;;;;;5.93;1.52;;;;;;;;;;4966763;28;20039;-65
2022/07/17 01:05:19;;;;;;;4.13;1.33;;;;;;;;;;4974763;28;20050;-66
2022/07/17 01:07:47;;;;;;;7.63;1.40;;;;;;;;;;4953529;28;20039;-66
2022/07/17 01:10:16;;;;;;;7.22;1.55;;;;;;;;;;4953179;28;20115;-66
2022/07/17 01:12:43;;;;;;;4.30;1.80;;;;;;;;;;4953350;28;20112;-67
2022/07/17 01:15:10;;;;;;;6.88;1.65;;;;;;;;;;4952777;28;20054;-65
2022/07/17 01:17:37;;;;;;;7.32;1.60;;;;;;;;;;4953194;28;20527;-65
2022/07/17 01:20:05;;;;;;;7.00;1.73;;;;;;;;;;4953678;28;20043;-65
2022/07/17 01:22:32;;;;;;;5.03;1.30;;;;;;;;;;4951563;28;20036;-65
2022/07/17 01:24:58;;;;;;;6.88;1.30;;;;;;;;;;4977443;28;20196;-65
2022/07/17 01:27:25;;;;;;;4.13;1.38;;;;;;;;;;4954197;28;20094;-65
2022/07/17 01:29:52;;;;;;;4.20;1.70;;;;;;;;;;4954561;28;20043;-65
2022/07/17 01:32:18;;;;;;;6.30;1.50;;;;;;;;;;4952329;28;20082;-65
2022/07/17 01:34:46;;;;;;;11.90;1.70;;;;;;;;;;4952346;28;20046;-65
2022/07/17 01:37:12;;;;;;;6.55;1.63;;;;;;;;;;4959394;28;20049;-65
2022/07/17 01:39:54;;;;;;;5.30;1.75;;;;;;;;;;4951713;28;20062;-66
2022/07/17 01:42:25;;;;;;;7.75;1.40;;;;;;;;;;4952634;28;22159;-66
2022/07/17 01:44:51;;;;;;;5.90;1.75;;;;;;;;;;4953536;28;20047;-66
2022/07/17 01:47:18;;;;;;;5.18;1.33;;;;;;;;;;4954462;28;20041;-66
2022/07/17 01:49:45;;;;;;;3.72;1.30;;;;;;;;;;4952486;28;20039;-66
2022/07/17 01:52:12;;;;;;;6.80;1.90;;;;;;;;;;4954345;28;20042;-66
2022/07/17 01:54:39;;;;;;;5.95;1.33;;;;;;;;;;4951465;28;20046;-66
2022/07/17 01:57:06;;;;;;;5.05;1.88;;;;;;;;;;4954369;28;20102;-66
2022/07/17 01:59:32;;;;;;;6.07;1.50;;;;;;;;;;4953440;28;20039;-66
2022/07/17 02:01:59;;;;;;;7.07;1.40;;;;;;;;;;4951597;28;20054;-66
2022/07/17 02:04:26;;;;;;;7.35;2.08;;;;;;;;;;4950835;28;20051;-65
2022/07/17 02:06:56;;;;;;;6.65;2.75;;;;;;;;;;4952963;28;20038;-64
2022/07/17 02:09:22;;;;;;;8.82;2.65;;;;;;;;;;4952325;28;20768;-64
2022/07/17 02:11:49;;;;;;;7.07;1.80;;;;;;;;;;4952323;28;20519;-64
2022/07/17 02:14:16;;;;;;;9.25;1.90;;;;;;;;;;4951950;28;20066;-65
2022/07/17 02:16:43;;;;;;;5.13;1.73;;;;;;;;;;4953102;28;20508;-65
2022/07/17 02:19:09;;;;;;;7.75;1.90;;;;;;;;;;4952896;28;20035;-66
2022/07/17 02:21:36;;;;;;;10.63;1.85;;;;;;;;;;4951805;28;20065;-65
2022/07/17 02:24:03;;;;;;;4.45;1.80;;;;;;;;;;4952446;28;20129;-65
2022/07/17 02:26:29;;;;;;;5.63;1.80;;;;;;;;;;4951198;28;21947;-65
2022/07/17 02:28:56;;;;;;;5.88;2.03;;;;;;;;;;4952416;28;20066;-65
2022/07/17 02:31:23;;;;;;;7.38;2.15;;;;;;;;;;4950346;28;20054;-65
2022/07/17 02:33:49;;;;;;;6.05;2.00;;;;;;;;;;4953026;28;20039;-66
2022/07/17 02:36:16;;;;;;;7.68;2.65;;;;;;;;;;4953760;28;20047;-64
2022/07/17 02:38:43;;;;;;;10.70;2.80;;;;;;;;;;4952362;28;20219;-62
2022/07/17 02:41:09;;;;;;;7.65;2.95;;;;;;;;;;4952015;28;20130;-63
2022/07/17 02:43:36;;;;;;;8.18;2.17;;;;;;;;;;4951887;28;20518;-62
2022/07/17 02:46:03;;;;;;;6.68;2.60;;;;;;;;;;4951283;28;20098;-62
2022/07/17 02:48:30;;;;;;;9.02;2.65;;;;;;;;;;4952274;28;20158;-62
2022/07/17 02:50:56;;;;;;;8.93;2.75;;;;;;;;;;4952890;28;20121;-62
2022/07/17 02:53:23;;;;;;;7.03;2.60;;;;;;;;;;4951517;28;20079;-62
2022/07/17 02:55:50;;;;;;;4.97;2.50;;;;;;;;;;4953285;28;20133;-62
2022/07/17 02:58:16;;;;;;;10.32;2.78;;;;;;;;;;4950544;28;20051;-62
2022/07/17 03:00:43;;;;;;;6.30;2.47;;;;;;;;;;4949399;28;20085;-62
2022/07/17 03:03:10;;;;;;;4.88;2.20;;;;;;;;;;4950853;28;20126;-62
2022/07/17 03:05:37;;;;;;;8.90;2.70;;;;;;;;;;4949970;28;20063;-62
2022/07/17 03:08:04;;;;;;;6.63;2.40;;;;;;;;;;4953124;28;20070;-62
2022/07/17 03:10:30;;;;;;;6.35;2.45;;;;;;;;;;4965349;28;20042;-63
2022/07/17 03:12:57;;;;;;;4.72;2.20;;;;;;;;;;4951301;28;20046;-62
2022/07/17 03:15:24;;;;;;;11.70;3.63;;;;;;;;;;4950435;28;20047;-64
2022/07/17 03:17:51;;;;;;;7.47;2.33;;;;;;;;;;4950726;28;20176;-64
2022/07/17 03:20:17;;;;;;;7.88;2.80;;;;;;;;;;4951171;28;20055;-64
2022/07/17 03:22:44;;;;;;;9.20;2.95;;;;;;;;;;4951012;28;20050;-59
2022/07/17 03:25:10;;;;;;;6.40;2.67;;;;;;;;;;4949644;28;20098;-61
2022/07/17 03:27:38;;;;;;;7.80;2.45;;;;;;;;;;4947916;28;20073;-61
2022/07/17 03:30:05;;;;;;;7.15;2.70;;;;;;;;;;4950919;28;20054;-61
2022/07/17 03:32:31;;;;;;;11.88;2.65;;;;;;;;;;4949883;28;20043;-61
2022/07/17 03:34:58;;;;;;;8.25;2.60;;;;;;;;;;4952090;28;20452;-62
2022/07/17 03:37:25;;;;;;;6.20;2.42;;;;;;;;;;4952787;28;20043;-61
2022/07/17 03:39:51;;;;;;;4.93;2.30;;;;;;;;;;4953952;28;20607;-60
2022/07/17 03:42:18;;;;;;;6.55;2.90;;;;;;;;;;4953864;28;20085;-60
2022/07/17 03:44:45;;;;;;;5.30;2.80;;;;;;;;;;4954890;28;20066;-61
2022/07/17 03:47:11;;;;;;;8.40;2.70;;;;;;;;;;4964991;28;20740;-61
2022/07/17 03:49:38;;;;;;;5.50;2.63;;;;;;;;;;4953609;28;20501;-60
2022/07/17 03:52:05;;;;;;;4.90;2.53;;;;;;;;;;4955637;28;20491;-62
2022/07/17 03:54:32;;;;;;;6.50;2.47;;;;;;;;;;4953191;28;20829;-62
2022/07/17 03:56:58;;;;;;;6.82;2.55;;;;;;;;;;4954698;28;20404;-64
2022/07/17 03:59:25;;;;;;;7.03;2.33;;;;;;;;;;4953903;28;20043;-61
2022/07/17 04:01:53;;;;;;;5.15;2.40;;;;;;;;;;4955313;28;20046;-64
2022/07/17 04:04:20;;;;;;;7.43;2.95;;;;;;;;;;4954379;28;20053;-64
2022/07/17 04:06:46;;;;;;;11.73;3.05;;;;;;;;;;4953874;28;20046;-64
2022/07/17 04:09:13;;;;;;;6.30;2.65;;;;;;;;;;4980967;28;20053;-62
2022/07/17 04:11:40;;;;;;;10.55;2.85;;;;;;;;;;4981887;28;20042;-61
2022/07/17 04:14:06;;;;;;;6.90;2.80;;;;;;;;;;4952881;28;20671;-63
2022/07/17 04:16:36;;;;;;;8.93;2.90;;;;;;;;;;4952033;28;20039;-63
2022/07/17 04:19:12;;;;;;;7.97;3.08;;;;;;;;;;4954680;28;20057;-60
2022/07/17 04:21:39;;;;;;;9.18;2.75;;;;;;;;;;4954951;28;20203;-62
2022/07/17 04:24:06;;;;;;;7.35;2.95;;;;;;;;;;4955056;28;20051;-62
2022/07/17 04:26:32;;;;;;;5.63;2.75;;;;;;;;;;4953403;28;20066;-62
2022/07/17 04:28:59;;;;;;;9.10;2.90;;;;;;;;;;4954415;28;20719;-63
2022/07/17 04:31:26;;;;;;;7.10;2.88;;;;;;;;;;4982110;28;20038;-62
2022/07/17 04:33:54;;;;;;;9.00;3.60;;;;;;;;;;4953418;28;20035;-62
2022/07/17 04:36:20;;;;;;;6.65;2.80;;;;;;;;;;4952343;28;21631;-61
2022/07/17 04:38:52;;;;;;;6.68;3.33;;;;;;;;;;4953583;28;20027;-63
2022/07/17 04:41:19;;;;;;;11.20;3.63;;;;;;;;;;4955049;28;20097;-62
2022/07/17 04:43:45;;;;;;;7.32;3.28;;;;;;;;;;4972846;28;20488;-65
2022/07/17 04:46:12;;;;;;;6.00;2.90;;;;;;;;;;4984075;28;20070;-64
2022/07/17 04:48:39;;;;;;;9.85;3.40;;;;;;;;;;4971630;28;20046;-66
2022/07/17 04:51:05;;;;;;;11.13;3.50;;;;;;;;;;4979749;28;20050;-65
2022/07/17 04:53:33;;;;;;;8.05;3.30;;;;;;;;;;4955544;28;20102;-65
2022/07/17 04:56:00;;;;;;;4.97;2.92;;;;;;;;;;4952522;28;20046;-66
2022/07/17 04:58:33;;;;;;;9.82;2.70;;;;;;;;;;4951770;28;20035;-66
2022/07/17 05:00:59;;;;;;;5.70;2.88;;;;;;;;;;4977736;28;20098;-65
2022/07/17 05:03:26;;;;;;;8.48;3.13;;;;;;;;;;4947606;28;20054;-65
2022/07/17 05:05:53;;;;;;;7.22;2.92;;;;;;;;;;4967178;28;20094;-64
2022/07/17 05:08:19;;;;;;;6.30;2.35;;;;;;;;;;4980912;28;20039;-65
2022/07/17 05:10:46;;;;;;;6.05;3.03;;;;;;;;;;4960929;28;20097;-64
2022/07/17 05:13:13;;;;;;;7.18;3.05;;;;;;;;;;4952010;28;20069;-65
2022/07/17 05:15:40;;;;;;;6.90;3.20;;;;;;;;;;4951336;28;20050;-64
2022/07/17 05:18:07;;;;;;;7.13;3.03;;;;;;;;;;4953633;28;20058;-64
2022/07/17 05:20:34;;;;;;;9.63;2.92;;;;;;;;;;4952559;28;20039;-64
2022/07/17 05:23:00;;;;;;;8.10;2.88;;;;;;;;;;4952756;28;20050;-64
2022/07/17 05:25:27;;;;;;;8.63;3.20;;;;;;;;;;4952215;28;20415;-63
2022/07/17 05:27:54;;;;;;;7.88;3.17;;;;;;;;;;4953693;28;20163;-63
2022/07/17 05:30:20;;;;;;;6.72;2.90;;;;;;;;;;4953482;28;20035;-63
2022/07/17 05:32:47;;;;;;;8.27;3.20;;;;;;;;;;4953278;28;20097;-63
2022/07/17 05:35:14;;;;;;;7.78;2.55;;;;;;;;;;4951884;28;20125;-64
2022/07/17 05:37:40;;;;;;;7.47;2.70;;;;;;;;;;4951094;28;20067;-63
2022/07/17 05:40:08;;;;;;;6.13;2.38;;;;;;;;;;4953176;28;20421;-63
2022/07/17 05:42:34;;;;;;;6.57;2.53;;;;;;;;;;4952063;28;20078;-63
2022/07/17 05:45:01;;;;;;;5.68;2.25;;;;;;;;;;4950434;28;20054;-63
2022/07/17 05:47:28;;;;;;;5.28;2.60;;;;;;;;;;4954931;28;20051;-63
2022/07/17 05:49:54;;;;;;;4.88;2.75;;;;;;;;;;4953025;28;20404;-62
2022/07/17 05:52:21;;;;;;;4.32;2.13;;;;;;;;;;4952888;28;20046;-63
2022/07/17 05:54:47;;;;;;;5.78;2.40;;;;;;;;;;4952921;28;20229;-63
2022/07/17 05:57:14;;;;;;;4.47;2.08;;;;;;;;;;4952521;28;20595;-63
2022/07/17 05:59:41;;;;;;;7.72;2.58;;;;;;;;;;4950323;28;20077;-64
2022/07/17 06:02:07;;;;;;;7.78;2.63;;;;;;;;;;4951743;28;20046;-63
2022/07/17 06:04:34;;;;;;;5.85;2.30;;;;;;;;;;4951723;28;20129;-63
2022/07/17 06:07:01;;;;;;;11.32;2.85;;;;;;;;;;4953580;28;20038;-64
2022/07/17 06:09:27;;;;;;;8.32;2.53;;;;;;;;;;4952041;28;20046;-64
2022/07/17 06:11:54;;;;;;;5.95;2.75;;;;;;;;;;4952385;28;20046;-63
2022/07/17 06:14:24;;;;;;;5.40;2.85;;;;;;;;;;4950416;28;20046;-64
2022/07/17 06:16:52;;;;;;;5.45;3.05;;;;;;;;;;4952525;28;20047;-64
2022/07/17 06:19:19;;;;;;;5.20;2.55;;;;;;;;;;4950085;28;20690;-64
2022/07/17 06:21:45;;;;;;;7.78;2.78;;;;;;;;;;4949768;28;20047;-64
2022/07/17 06:24:12;;;;;;;8.73;2.80;;;;;;;;;;4951250;28;20039;-64
2022/07/17 06:26:39;;;;;;;5.32;2.80;;;;;;;;;;4952305;28;20879;-64
2022/07/17 06:29:05;;;;;;;7.80;2.72;;;;;;;;;;4951017;28;20476;-64
2022/07/17 06:31:32;;;;;;;9.70;2.70;;;;;;;;;;4950846;28;20074;-64
2022/07/17 06:33:58;;;;;;;6.65;2.70;;;;;;;;;;4950055;28;20050;-63
2022/07/17 06:36:25;;;;;;;5.50;2.47;;;;;;;;;;4953350;28;20039;-63
2022/07/17 06:38:52;;;;;;;6.65;2.30;;;;;;;;;;4953490;28;20057;-64
2022/07/17 06:41:18;;;;;;;8.30;2.72;;;;;;;;;;4951359;28;20046;-64
2022/07/17 06:43:45;;;;;;;6.82;2.47;;;;;;;;;;4967959;28;20065;-64
2022/07/17 06:46:12;;;;;;;5.20;2.42;;;;;;;;;;4971387;28;20504;-63
2022/07/17 06:48:38;;;;;;;5.55;2.45;;;;;;;;;;4971398;28;20038;-64
2022/07/17 06:51:05;;;;;;;8.35;2.70;;;;;;;;;;4956629;28;20051;-64
2022/07/17 06:53:32;;;;;;;7.60;2.63;;;;;;;;;;4952441;28;20047;-64
2022/07/17 06:55:58;;;;;;;5.63;2.60;;;;;;;;;;4951287;28;20039;-64
2022/07/17 06:58:25;;;;;;;7.00;2.67;;;;;;;;;;4951810;28;20508;-64
2022/07/17 07:00:52;;;;;;;6.18;2.50;;;;;;;;;;4952478;28;20216;-64
2022/07/17 07:03:18;;;;;;;5.32;2.33;;;;;;;;;;4950823;28;20480;-64
2022/07/17 07:05:45;;;;;;;10.32;2.83;;;;;;;;;;4949851;28;20056;-64
2022/07/17 07:08:15;;;;;;;6.53;3.03;;;;;;;;;;4951019;28;20058;-64
2022/07/17 07:10:42;;;;;;;5.43;2.58;;;;;;;;;;4948356;28;20043;-64
2022/07/17 07:13:09;;;;;;;6.78;3.00;;;;;;;;;;4950822;28;20141;-64
2022/07/17 07:15:36;;;;;;;7.07;2.80;;;;;;;;;;4949822;28;20043;-64
2022/07/17 07:18:02;;;;;;;5.28;2.72;;;;;;;;;;4975854;28;20038;-64
2022/07/17 07:20:29;;;;;;;12.23;2.92;;;;;;;;;;4953796;28;20047;-64
2022/07/17 07:22:56;;;;;;;6.45;3.00;;;;;;;;;;4951014;28;20035;-65
2022/07/17 07:25:23;;;;;;;4.93;2.60;;;;;;;;;;4950303;28;20062;-64
2022/07/17 07:27:49;;;;;;;6.65;2.70;;;;;;;;;;4950338;28;20142;-64
2022/07/17 07:30:16;;;;;;;6.30;2.58;;;;;;;;;;4951477;28;20042;-64
2022/07/17 07:32:43;;;;;;;10.30;2.65;;;;;;;;;;4949821;28;20046;-65
2022/07/17 07:35:10;;;;;;;4.68;2.40;;;;;;;;;;4951032;28;20062;-64
2022/07/17 07:37:37;;;;;;;8.55;2.92;;;;;;;;;;4951450;28;20066;-65
2022/07/17 07:40:04;;;;;;;5.20;2.58;;;;;;;;;;4950766;28;20071;-65
2022/07/17 07:42:31;;;;;;;5.28;2.47;;;;;;;;;;4948899;28;20566;-65
2022/07/17 07:44:58;;;;;;;5.18;2.58;;;;;;;;;;4949112;28;20155;-65
2022/07/17 07:47:25;;;;;;;5.65;2.75;;;;;;;;;;4950975;28;20070;-65
2022/07/17 07:49:51;;;;;;;5.70;2.72;;;;;;;;;;4951326;28;20063;-64
2022/07/17 07:52:18;;;;;;;6.05;2.60;;;;;;;;;;4950814;28;20197;-65
2022/07/17 07:54:45;;;;;;;10.82;2.50;;;;;;;;;;4951737;28;20076;-64
2022/07/17 07:57:12;;;;;;;6.78;2.97;;;;;;;;;;4951217;28;20043;-64
2022/07/17 07:59:38;;;;;;;6.10;2.70;;;;;;;;;;4948942;28;20066;-65
2022/07/17 08:02:05;;;;;;;6.40;2.58;;;;;;;;;;4950412;28;20078;-65
2022/07/17 08:04:32;;;;;;;8.05;2.75;;;;;;;;;;4949480;28;20110;-64
2022/07/17 08:06:58;;;;;;;6.47;2.70;;;;;;;;;;4950276;28;20043;-65
2022/07/17 08:09:25;;;;;;;5.85;2.67;;;;;;;;;;4949440;28;20408;-65
2022/07/17 08:11:52;;;;;;;4.82;2.50;;;;;;;;;;4951913;28;20043;-65
2022/07/17 08:14:18;;;;;;;5.28;2.45;;;;;;;;;;4949725;28;20049;-65
2022/07/17 08:16:45;;;;;;;6.32;2.33;;;;;;;;;;4969963;28;20602;-65
2022/07/17 08:19:12;;;;;;;6.05;2.35;;;;;;;;;;4972643;28;20266;-64
2022/07/17 08:21:38;;;;;;;5.32;2.40;;;;;;;;;;4974255;28;20406;-64
2022/07/17 08:24:05;;;;;;;3.90;2.05;;;;;;;;;;4973282;28;20050;-64
2022/07/17 08:26:32;;;;;;;5.00;2.20;;;;;;;;;;4973796;28;20046;-65
2022/07/17 08:28:59;;;;;;;6.20;3.00;;;;;;;;;;4974360;28;20066;-66
2022/07/17 08:31:25;;;;;;;6.53;2.47;;;;;;;;;;4973213;28;20058;-65
2022/07/17 08:33:52;;;;;;;4.88;2.30;;;;;;;;;;4971707;28;20038;-64
2022/07/17 08:36:18;;;;;;;4.95;2.10;;;;;;;;;;4980995;28;20042;-65
2022/07/17 08:38:45;;;;;;;6.93;2.15;;;;;;;;;;4970915;28;20428;-65
2022/07/17 08:41:16;;;;;;;4.50;2.13;;;;;;;;;;4971382;28;20038;-66
2022/07/17 08:43:43;;;;;;;6.70;2.00;;;;;;;;;;4969845;28;20043;-64
2022/07/17 08:46:13;;;;;;;6.25;2.50;;;;;;;;;;4971178;28;20222;-65
2022/07/17 08:48:45;;;;;;;6.38;1.85;;;;;;;;;;4970659;28;20053;-66
2022/07/17 08:51:13;;;;;;;4.97;1.90;;;;;;;;;;4971224;28;20042;-65
2022/07/17 08:53:42;;;;;;;4.47;2.10;;;;;;;;;;4968963;28;20680;-65
2022/07/17 08:56:09;;;;;;;4.13;2.00;;;;;;;;;;4970786;28;20306;-64
2022/07/17 08:58:36;;;;;;;4.05;1.90;;;;;;;;;;4970363;28;20085;-65
2022/07/17 09:01:03;;;;;;;5.03;2.38;;;;;;;;;;4971328;28;20463;-65
2022/07/17 09:03:30;;;;;;;5.15;2.28;;;;;;;;;;4973754;28;20043;-65
2022/07/17 09:05:57;;;;;;;5.20;2.40;;;;;;;;;;4975971;28;20046;-64
2022/07/17 09:08:24;;;;;;;4.35;1.92;;;;;;;;;;4977959;28;20097;-65
2022/07/17 09:10:52;;;;;;;5.47;2.40;;;;;;;;;;4954322;28;20042;-64
2022/07/17 09:13:30;;;;;;;7.35;2.25;;;;;;;;;;4950658;28;20064;-64
2022/07/17 09:16:06;;;;;;;4.60;2.22;;;;;;;;;;4953570;28;20109;-64
2022/07/17 09:18:44;;;;;;;3.60;1.75;;;;;;;;;;4951190;28;20101;-65
2022/07/17 09:21:17;;;;;;;3.83;1.73;;;;;;;;;;4952239;28;20047;-65
2022/07/17 09:23:43;;;;;;;5.03;2.00;;;;;;;;;;4951189;28;20062;-65
2022/07/17 09:26:10;;;;;;;4.90;2.00;;;;;;;;;;4953932;28;20065;-65
2022/07/17 09:28:55;;;;;;;4.30;2.05;;;;;;;;;;4951388;28;21907;-65
2022/07/17 09:31:25;;;;;;;4.07;1.98;;;;;;;;;;4964120;28;20043;-65
2022/07/17 09:33:52;;;;;;;5.53;1.92;;;;;;;;;;4958156;28;20042;-65
2022/07/17 09:36:19;;;;;;;4.68;2.10;;;;;;;;;;4952053;28;20113;-64
2022/07/17 09:38:46;;;;;;;4.38;2.13;;;;;;;;;;4953472;28;20055;-65
2022/07/17 09:41:17;;;;;;;5.97;2.15;;;;;;;;;;4953224;28;20043;-65
2022/07/17 09:43:48;;;;;;;5.57;2.40;;;;;;;;;;4950412;28;20212;-64
2022/07/17 09:46:15;;;;;;;4.72;1.90;;;;;;;;;;4951299;28;20142;-64
2022/07/17 09:48:49;;;;;;;4.82;2.17;;;;;;;;;;4952249;28;20040;-64
2022/07/17 09:51:17;;;;;;;4.10;2.13;;;;;;;;;;4953227;28;20043;-63
2022/07/17 09:53:47;;;;;;;6.60;2.30;;;;;;;;;;4950454;28;20050;-64
2022/07/17 09:56:15;;;;;;;3.70;1.88;;;;;;;;;;4950401;28;20097;-65
2022/07/17 09:58:43;;;;;;;5.32;2.33;;;;;;;;;;4950798;28;20053;-64
2022/07/17 10:01:10;;;;;;;4.82;1.90;;;;;;;;;;4952184;28;20082;-64
2022/07/17 10:03:37;;;;;;;5.35;2.28;;;;;;;;;;4949705;28;20062;-64
2022/07/17 10:06:04;;;;;;;4.55;2.30;;;;;;;;;;4951668;28;20385;-65
2022/07/17 10:08:31;;;;;;;7.93;2.38;;;;;;;;;;4952143;28;20067;-64
2022/07/17 10:10:58;;;;;;;6.40;2.42;;;;;;;;;;4954426;28;20039;-64
2022/07/17 10:13:25;;;;;;;5.07;2.33;;;;;;;;;;4949557;28;20035;-64
2022/07/17 10:15:52;;;;;;;5.07;2.30;;;;;;;;;;4952174;28;20488;-66
2022/07/17 10:18:21;;;;;;;7.65;2.45;;;;;;;;;;4953033;28;20377;-65
2022/07/17 10:20:48;;;;;;;4.68;2.33;;;;;;;;;;4951705;28;20452;-65
2022/07/17 10:23:15;;;;;;;5.38;2.53;;;;;;;;;;4950649;28;20039;-65
2022/07/17 10:25:42;;;;;;;5.88;2.20;;;;;;;;;;4949958;28;20655;-64
2022/07/17 10:28:09;;;;;;;6.72;2.47;;;;;;;;;;4958406;28;20089;-64
2022/07/17 10:30:36;;;;;;;9.73;2.70;;;;;;;;;;4961543;28;20039;-64
2022/07/17 10:33:06;;;;;;;5.82;2.55;;;;;;;;;;4951557;28;20611;-64
2022/07/17 10:35:43;;;;;;;5.15;2.22;;;;;;;;;;4950286;28;20519;-64
2022/07/17 10:38:14;;;;;;;6.32;2.50;;;;;;;;;;4952181;28;20043;-65
2022/07/17 10:40:41;;;;;;;5.32;2.40;;;;;;;;;;4950846;28;20089;-64
2022/07/17 10:43:09;;;;;;;4.72;2.10;;;;;;;;;;4950646;28;20263;-64
2022/07/17 10:45:42;;;;;;;6.65;2.55;;;;;;;;;;4950056;28;20047;-64
2022/07/17 10:48:13;;;;;;;6.07;2.50;;;;;;;;;;4951077;28;20428;-64
2022/07/17 10:50:41;;;;;;;5.45;2.70;;;;;;;;;;4952535;28;20046;-64
2022/07/17 10:53:40;;;;;;;5.80;2.10;;;;;;;;;;4952052;28;20500;-64
2022/07/17 10:56:13;;;;;;;6.35;2.60;;;;;;;;;;4972307;28;20042;-64
2022/07/17 10:58:43;;;;;;;7.57;1.92;;;;;;;;;;4949861;28;20495;-64
2022/07/17 11:01:12;;;;;;;5.50;2.30;;;;;;;;;;4952422;28;20042;-65
2022/07/17 11:03:40;;;;;;;5.13;2.20;;;;;;;;;;4950486;28;20064;-64
2022/07/17 11:06:15;;;;;;;7.53;2.20;;;;;;;;;;4950510;28;20069;-65
2022/07/17 11:08:43;;;;;;;5.90;2.22;;;;;;;;;;4951118;28;20038;-65
2022/07/17 11:11:09;;;;;;;3.97;1.83;;;;;;;;;;4949336;28;20100;-65
2022/07/17 11:13:36;;;;;;;7.03;2.38;;;;;;;;;;4949444;28;20066;-64
2022/07/17 11:16:04;;;;;;;4.55;1.95;;;;;;;;;;4951210;28;20254;-65
2022/07/17 11:18:30;;;;;;;6.90;2.50;;;;;;;;;;4950460;28;20071;-65
2022/07/17 11:20:59;;;;;;;5.70;2.30;;;;;;;;;;4950982;28;20070;-64
2022/07/17 11:23:27;;;;;;;4.72;1.92;;;;;;;;;;4947727;28;20035;-64
2022/07/17 11:25:59;;;;;;;4.75;2.33;;;;;;;;;;4950830;28;20043;-64
2022/07/17 11:28:32;;;;;;;6.55;2.40;;;;;;;;;;4948341;28;20094;-64
2022/07/17 11:31:00;;;;;;;5.43;2.17;;;;;;;;;;4950383;28;20400;-65
2022/07/17 11:33:26;;;;;;;6.00;1.98;;;;;;;;;;4949211;28;20512;-64
2022/07/17 11:35:56;;;;;;;5.53;2.25;;;;;;;;;;4951419;28;20067;-64
2022/07/17 11:38:30;;;;;;;6.00;2.20;;;;;;;;;;4951647;28;20050;-64
2022/07/17 11:40:56;;;;;;;5.40;2.30;;;;;;;;;;4950966;28;20035;-65
2022/07/17 11:43:23;;;;;;;5.97;2.22;;;;;;;;;;4978374;28;20515;-65
2022/07/17 11:45:50;;;;;;;5.15;2.03;;;;;;;;;;4957009;28;20063;-64
2022/07/17 11:48:17;;;;;;;5.13;2.05;;;;;;;;;;4951742;28;20508;-64
2022/07/17 11:50:53;;;;;;;3.95;1.92;;;;;;;;;;4950482;28;20050;-64
2022/07/17 11:53:20;;;;;;;6.05;2.42;;;;;;;;;;4949982;28;20047;-64
2022/07/17 11:55:46;;;;;;;4.90;2.45;;;;;;;;;;4960544;28;20053;-64
2022/07/17 11:58:13;;;;;;;4.70;2.30;;;;;;;;;;4955419;28;20043;-65
2022/07/17 12:00:40;;;;;;;6.28;2.40;;;;;;;;;;4956288;28;20046;-65
2022/07/17 12:03:07;;;;;;;4.07;1.67;;;;;;;;;;4953159;28;20105;-64
2022/07/17 12:05:34;;;;;;;6.15;2.10;;;;;;;;;;4953255;28;20058;-64
2022/07/17 12:08:01;;;;;;;5.47;2.10;;;;;;;;;;4953330;28;20553;-64
2022/07/17 12:10:32;;;;;;;4.53;1.80;;;;;;;;;;4953375;28;20039;-64
2022/07/17 12:13:06;;;;;;;4.80;2.00;;;;;;;;;;4953988;28;20098;-64
2022/07/17 12:15:40;;;;;;;4.55;2.20;;;;;;;;;;4954359;28;20054;-65
2022/07/17 12:18:09;;;;;;;6.53;2.10;;;;;;;;;;4955557;28;20047;-64
2022/07/17 12:20:43;;;;;;;4.72;2.10;;;;;;;;;;4979863;28;20050;-64
2022/07/17 12:23:10;;;;;;;4.70;2.08;;;;;;;;;;4952979;28;20597;-64
2022/07/17 12:25:36;;;;;;;5.45;2.30;;;;;;;;;;4953097;28;20545;-63
2022/07/17 12:28:03;;;;;;;4.63;2.13;;;;;;;;;;4953491;28;20093;-64
2022/07/17 12:30:32;;;;;;;4.88;2.08;;;;;;;;;;4952663;28;20063;-64
2022/07/17 12:32:59;;;;;;;5.78;2.20;;;;;;;;;;4952973;28;20138;-63
2022/07/17 12:35:25;;;;;;;4.63;1.63;;;;;;;;;;4953448;28;20070;-64
2022/07/17 12:37:52;;;;;;;5.25;2.10;;;;;;;;;;4955790;28;20288;-63
2022/07/17 12:40:19;;;;;;;4.93;2.13;;;;;;;;;;4954486;28;20046;-63
2022/07/17 12:42:45;;;;;;;4.80;2.03;;;;;;;;;;4952718;28;20114;-63
2022/07/17 12:45:12;;;;;;;7.05;2.13;;;;;;;;;;4952555;28;20299;-64
2022/07/17 12:47:38;;;;;;;4.85;1.90;;;;;;;;;;4953575;28;20995;-65
2022/07/17 12:50:05;;;;;;;6.15;1.92;;;;;;;;;;4954517;28;20615;-65
2022/07/17 12:52:32;;;;;;;5.55;2.08;;;;;;;;;;4955122;28;20132;-65
2022/07/17 12:54:59;;;;;;;4.47;2.03;;;;;;;;;;4953893;28;20070;-65
2022/07/17 12:57:25;;;;;;;5.13;1.90;;;;;;;;;;4952887;28;20035;-65
2022/07/17 12:59:52;;;;;;;4.65;1.92;;;;;;;;;;4954308;28;20575;-64
2022/07/17 13:02:18;;;;;;;5.50;2.25;;;;;;;;;;4980884;28;20042;-64
2022/07/17 13:04:45;;;;;;;6.10;1.90;;;;;;;;;;4951985;28;20063;-64
2022/07/17 13:07:12;;;;;;;3.75;1.60;;;;;;;;;;4980070;28;20452;-64
2022/07/17 13:09:38;;;;;;;4.38;1.92;;;;;;;;;;4953009;28;20045;-64
2022/07/17 13:12:05;;;;;;;4.78;2.20;;;;;;;;;;4952925;28;20077;-64
2022/07/17 13:14:32;;;;;;;4.75;1.95;;;;;;;;;;4951004;28;20036;-64
2022/07/17 13:16:59;;;;;;;4.50;2.05;;;;;;;;;;4953627;28;20089;-64
2022/07/17 13:19:26;;;;;;;10.20;2.28;;;;;;;;;;4952429;28;20210;-64
2022/07/17 13:21:53;;;;;;;6.60;2.10;;;;;;;;;;4953150;28;20043;-64
2022/07/17 13:24:19;;;;;;;4.85;1.98;;;;;;;;;;4953870;28;20039;-63
2022/07/17 13:26:46;;;;;;;4.82;1.98;;;;;;;;;;4954262;28;20121;-63
2022/07/17 13:29:13;;;;;;;6.03;2.55;;;;;;;;;;4952112;28;20066;-63
2022/07/17 13:31:40;;;;;;;7.60;2.00;;;;;;;;;;4951246;28;20031;-63
2022/07/17 13:34:06;;;;;;;6.40;2.13;;;;;;;;;;4952136;28;21942;-66
2022/07/17 13:36:33;;;;;;;5.22;1.90;;;;;;;;;;4980278;28;20069;-66
2022/07/17 13:39:00;;;;;;;4.55;1.92;;;;;;;;;;4952973;28;20046;-63
2022/07/17 13:41:26;;;;;;;4.93;2.33;;;;;;;;;;4979880;28;20188;-64
2022/07/17 13:43:53;;;;;;;6.40;2.22;;;;;;;;;;4950258;28;20058;-63
2022/07/17 13:46:20;;;;;;;6.88;2.20;;;;;;;;;;4951532;28;20071;-63
2022/07/17 13:48:46;;;;;;;5.07;2.13;;;;;;;;;;4971156;28;20476;-63
2022/07/17 13:51:14;;;;;;;6.07;2.22;;;;;;;;;;4971541;28;20862;-63
2022/07/17 13:53:42;;;;;;;4.13;2.10;;;;;;;;;;4969977;28;20047;-64
2022/07/17 13:56:09;;;;;;;6.43;1.98;;;;;;;;;;4967991;28;20847;-63
2022/07/17 13:58:35;;;;;;;4.22;1.85;;;;;;;;;;4968659;28;20078;-58
2022/07/17 14:01:02;;;;;;;4.65;1.98;;;;;;;;;;4970713;28;20049;-61
2022/07/17 14:03:29;;;;;;;5.53;2.10;;;;;;;;;;4972389;28;20042;-62
2022/07/17 14:05:56;;;;;;;4.47;1.90;;;;;;;;;;4978017;28;20601;-62
2022/07/17 14:08:22;;;;;;;7.05;2.05;;;;;;;;;;4955373;28;20916;-62
2022/07/17 14:10:49;;;;;;;5.80;1.90;;;;;;;;;;4952640;28;20069;-63
2022/07/17 14:13:16;;;;;;;4.40;2.10;;;;;;;;;;4950378;28;20122;-64
2022/07/17 14:15:43;;;;;;;4.25;1.90;;;;;;;;;;4943348;28;20039;-64
2022/07/17 14:18:09;;;;;;;6.70;2.00;;;;;;;;;;4951814;28;20039;-66
2022/07/17 14:20:36;;;;;;;4.82;1.88;;;;;;;;;;4951726;28;20042;-65
2022/07/17 14:23:02;;;;;;;4.22;1.75;;;;;;;;;;4951905;28;20441;-64
2022/07/17 14:25:29;;;;;;;5.65;2.60;;;;;;;;;;4951374;28;20504;-65
2022/07/17 14:27:56;;;;;;;4.65;1.75;;;;;;;;;;4953503;28;20053;-65
2022/07/17 14:30:23;;;;;;;5.38;1.90;;;;;;;;;;4954219;28;20039;-65
2022/07/17 14:32:50;;;;;;;4.68;1.80;;;;;;;;;;4952566;28;20094;-65
2022/07/17 14:35:16;;;;;;;4.65;2.08;;;;;;;;;;4952319;28;20039;-65
2022/07/17 14:37:43;;;;;;;4.07;1.90;;;;;;;;;;4951317;28;20051;-63
2022/07/17 14:40:11;;;;;;;4.63;2.10;;;;;;;;;;4952402;28;20044;-63
2022/07/17 14:42:37;;;;;;;6.43;1.70;;;;;;;;;;4950757;28;20057;-63
2022/07/17 14:45:04;;;;;;;4.97;1.80;;;;;;;;;;4952087;28;20053;-63